sensor_id;sensor_type;location;lat;lon;timestamp;P1;durP1;ratioP1;P2;durP2;ratioP2
51718;SDS011;37795;53.236;5.704;2022-11-20T00:01:06;17.17;;;13.82;;
51718;SDS011;37795;53.236;5.704;2022-11-20T00:03:40;20.00;;;15.45;;
51718;SDS011;37795;53.236;5.704;2022-11-20T00:06:07;18.67;;;15.63;;
51718;SDS011;37795;53.236;5.704;2022-11-20T00:08:34;18.58;;;15.63;;
51718;SDS011;37795;53.236;5.704;2022-11-20T00:11:19;14.73;;;12.50;;
51718;SDS011;37795;53.236;5.704;2022-11-20T00:13:47;15.10;;;12.93;;
51718;SDS011;37795;53.236;5.704;2022-11-20T00:16:16;19.20;;;14.68;;
51718;SDS011;37795;53.236;5.704;2022-11-20T00:18:43;23.17;;;17.88;;
51718;SDS011;37795;53.236;5.704;2022-11-20T00:21:10;24.45;;;19.13;;
51718;SDS011;37795;53.236;5.704;2022-11-20T00:23:38;28.33;;;21.60;;
51718;SDS011;37795;53.236;5.704;2022-11-20T00:26:04;29.88;;;24.50;;
51718;SDS011;37795;53.236;5.704;2022-11-20T00:28:34;33.93;;;23.77;;
51718;SDS011;37795;53.236;5.704;2022-11-20T00:31:07;15.13;;;13.27;;
51718;SDS011;37795;53.236;5.704;2022-11-20T00:33:35;14.63;;;11.45;;
51718;SDS011;37795;53.236;5.704;2022-11-20T00:36:08;15.13;;;12.13;;
51718;SDS011;37795;53.236;5.704;2022-11-20T00:38:38;15.10;;;11.82;;
51718;SDS011;37795;53.236;5.704;2022-11-20T00:41:06;12.82;;;11.55;;
51718;SDS011;37795;53.236;5.704;2022-11-20T00:43:33;18.80;;;14.77;;
51718;SDS011;37795;53.236;5.704;2022-11-20T00:48:41;18.40;;;14.38;;
51718;SDS011;37795;53.236;5.704;2022-11-20T00:51:08;16.33;;;14.57;;
51718;SDS011;37795;53.236;5.704;2022-11-20T00:53:34;13.30;;;11.90;;
51718;SDS011;37795;53.236;5.704;2022-11-20T00:56:01;14.98;;;13.40;;
51718;SDS011;37795;53.236;5.704;2022-11-20T00:58:30;14.93;;;13.38;;
51718;SDS011;37795;53.236;5.704;2022-11-20T01:01:03;16.08;;;13.10;;
51718;SDS011;37795;53.236;5.704;2022-11-20T01:03:34;14.30;;;12.80;;
51718;SDS011;37795;53.236;5.704;2022-11-20T01:06:04;14.27;;;12.77;;
51718;SDS011;37795;53.236;5.704;2022-11-20T01:08:33;13.43;;;12.03;;
51718;SDS011;37795;53.236;5.704;2022-11-20T01:11:01;14.07;;;12.38;;
51718;SDS011;37795;53.236;5.704;2022-11-20T01:13:28;13.45;;;12.05;;
51718;SDS011;37795;53.236;5.704;2022-11-20T01:16:08;14.05;;;12.52;;
51718;SDS011;37795;53.236;5.704;2022-11-20T01:18:45;14.45;;;12.25;;
51718;SDS011;37795;53.236;5.704;2022-11-20T01:21:16;15.98;;;12.15;;
51718;SDS011;37795;53.236;5.704;2022-11-20T01:23:50;14.57;;;12.80;;
51718;SDS011;37795;53.236;5.704;2022-11-20T01:26:26;14.90;;;12.65;;
51718;SDS011;37795;53.236;5.704;2022-11-20T01:28:54;13.00;;;11.70;;
51718;SDS011;37795;53.236;5.704;2022-11-20T01:33:48;14.77;;;12.68;;
51718;SDS011;37795;53.236;5.704;2022-11-20T01:36:16;13.33;;;11.93;;
51718;SDS011;37795;53.236;5.704;2022-11-20T01:38:43;15.55;;;12.80;;
51718;SDS011;37795;53.236;5.704;2022-11-20T01:41:09;14.48;;;12.98;;
51718;SDS011;37795;53.236;5.704;2022-11-20T01:43:36;15.20;;;12.82;;
51718;SDS011;37795;53.236;5.704;2022-11-20T01:51:39;14.48;;;12.05;;
51718;SDS011;37795;53.236;5.704;2022-11-20T01:54:06;13.80;;;11.13;;
51718;SDS011;37795;53.236;5.704;2022-11-20T01:56:38;14.50;;;12.40;;
51718;SDS011;37795;53.236;5.704;2022-11-20T01:59:07;12.65;;;11.35;;
51718;SDS011;37795;53.236;5.704;2022-11-20T02:01:34;14.67;;;12.17;;
51718;SDS011;37795;53.236;5.704;2022-11-20T02:04:00;12.85;;;11.38;;
51718;SDS011;37795;53.236;5.704;2022-11-20T02:06:32;13.25;;;11.48;;
51718;SDS011;37795;53.236;5.704;2022-11-20T02:09:03;13.67;;;12.27;;
51718;SDS011;37795;53.236;5.704;2022-11-20T02:11:30;13.48;;;12.18;;
51718;SDS011;37795;53.236;5.704;2022-11-20T02:13:56;15.07;;;11.63;;
51718;SDS011;37795;53.236;5.704;2022-11-20T02:16:23;12.35;;;11.05;;
51718;SDS011;37795;53.236;5.704;2022-11-20T02:18:53;12.67;;;11.07;;
51718;SDS011;37795;53.236;5.704;2022-11-20T02:21:28;14.75;;;12.05;;
51718;SDS011;37795;53.236;5.704;2022-11-20T02:24:00;13.45;;;11.35;;
51718;SDS011;37795;53.236;5.704;2022-11-20T02:29:58;14.23;;;12.27;;
51718;SDS011;37795;53.236;5.704;2022-11-20T02:32:33;13.90;;;11.65;;
51718;SDS011;37795;53.236;5.704;2022-11-20T02:37:33;13.25;;;11.88;;
51718;SDS011;37795;53.236;5.704;2022-11-20T02:40:02;14.82;;;13.10;;
51718;SDS011;37795;53.236;5.704;2022-11-20T02:42:28;13.52;;;11.63;;
51718;SDS011;37795;53.236;5.704;2022-11-20T02:44:54;15.77;;;13.43;;
51718;SDS011;37795;53.236;5.704;2022-11-20T02:47:19;13.93;;;12.48;;
51718;SDS011;37795;53.236;5.704;2022-11-20T02:49:45;15.00;;;13.40;;
51718;SDS011;37795;53.236;5.704;2022-11-20T02:52:10;13.10;;;11.77;;
51718;SDS011;37795;53.236;5.704;2022-11-20T02:54:36;16.80;;;12.45;;
51718;SDS011;37795;53.236;5.704;2022-11-20T02:57:02;13.80;;;12.37;;
51718;SDS011;37795;53.236;5.704;2022-11-20T02:59:28;15.40;;;13.05;;
51718;SDS011;37795;53.236;5.704;2022-11-20T03:01:53;17.90;;;12.77;;
51718;SDS011;37795;53.236;5.704;2022-11-20T03:04:19;15.90;;;12.50;;
51718;SDS011;37795;53.236;5.704;2022-11-20T03:06:45;13.50;;;11.70;;
51718;SDS011;37795;53.236;5.704;2022-11-20T03:09:10;14.43;;;12.93;;
51718;SDS011;37795;53.236;5.704;2022-11-20T03:11:36;15.13;;;12.80;;
51718;SDS011;37795;53.236;5.704;2022-11-20T03:14:03;14.10;;;12.65;;
51718;SDS011;37795;53.236;5.704;2022-11-20T03:16:30;14.73;;;12.32;;
51718;SDS011;37795;53.236;5.704;2022-11-20T03:18:57;15.55;;;12.75;;
51718;SDS011;37795;53.236;5.704;2022-11-20T03:21:22;15.00;;;12.63;;
51718;SDS011;37795;53.236;5.704;2022-11-20T03:23:48;14.98;;;13.18;;
51718;SDS011;37795;53.236;5.704;2022-11-20T03:26:15;14.00;;;12.27;;
51718;SDS011;37795;53.236;5.704;2022-11-20T03:28:50;15.75;;;12.10;;
51718;SDS011;37795;53.236;5.704;2022-11-20T03:31:18;14.85;;;12.88;;
51718;SDS011;37795;53.236;5.704;2022-11-20T03:33:45;16.13;;;13.25;;
51718;SDS011;37795;53.236;5.704;2022-11-20T03:36:12;16.60;;;13.83;;
51718;SDS011;37795;53.236;5.704;2022-11-20T03:38:39;15.23;;;13.63;;
51718;SDS011;37795;53.236;5.704;2022-11-20T03:41:09;16.90;;;13.30;;
51718;SDS011;37795;53.236;5.704;2022-11-20T03:43:39;14.63;;;12.95;;
51718;SDS011;37795;53.236;5.704;2022-11-20T03:46:05;14.68;;;13.18;;
51718;SDS011;37795;53.236;5.704;2022-11-20T03:48:32;17.30;;;13.90;;
51718;SDS011;37795;53.236;5.704;2022-11-20T03:51:10;16.50;;;14.13;;
51718;SDS011;37795;53.236;5.704;2022-11-20T03:53:42;15.18;;;12.52;;
51718;SDS011;37795;53.236;5.704;2022-11-20T03:56:09;15.18;;;12.88;;
51718;SDS011;37795;53.236;5.704;2022-11-20T03:58:36;17.20;;;13.90;;
51718;SDS011;37795;53.236;5.704;2022-11-20T04:01:11;15.47;;;12.87;;
51718;SDS011;37795;53.236;5.704;2022-11-20T04:03:39;15.48;;;13.88;;
51718;SDS011;37795;53.236;5.704;2022-11-20T04:06:10;15.57;;;12.98;;
51718;SDS011;37795;53.236;5.704;2022-11-20T04:08:40;16.00;;;13.80;;
51718;SDS011;37795;53.236;5.704;2022-11-20T04:11:16;16.63;;;13.40;;
51718;SDS011;37795;53.236;5.704;2022-11-20T04:13:48;15.27;;;13.43;;
51718;SDS011;37795;53.236;5.704;2022-11-20T04:16:15;14.75;;;13.13;;
51718;SDS011;37795;53.236;5.704;2022-11-20T04:18:42;13.90;;;12.45;;
51718;SDS011;37795;53.236;5.704;2022-11-20T04:21:08;13.80;;;12.40;;
51718;SDS011;37795;53.236;5.704;2022-11-20T04:23:34;14.57;;;12.77;;
51718;SDS011;37795;53.236;5.704;2022-11-20T04:26:00;14.03;;;12.60;;
51718;SDS011;37795;53.236;5.704;2022-11-20T04:28:28;14.07;;;12.65;;
51718;SDS011;37795;53.236;5.704;2022-11-20T04:30:53;15.13;;;12.50;;
51718;SDS011;37795;53.236;5.704;2022-11-20T04:33:19;15.70;;;13.50;;
51718;SDS011;37795;53.236;5.704;2022-11-20T04:35:45;15.68;;;12.68;;
51718;SDS011;37795;53.236;5.704;2022-11-20T04:38:12;16.42;;;13.05;;
51718;SDS011;37795;53.236;5.704;2022-11-20T04:40:38;16.93;;;13.33;;
51718;SDS011;37795;53.236;5.704;2022-11-20T04:43:04;14.13;;;12.18;;
51718;SDS011;37795;53.236;5.704;2022-11-20T04:45:29;15.57;;;12.60;;
51718;SDS011;37795;53.236;5.704;2022-11-20T04:47:55;14.23;;;12.45;;
51718;SDS011;37795;53.236;5.704;2022-11-20T04:50:21;15.20;;;12.97;;
51718;SDS011;37795;53.236;5.704;2022-11-20T04:52:46;17.48;;;13.05;;
51718;SDS011;37795;53.236;5.704;2022-11-20T04:55:12;14.23;;;11.90;;
51718;SDS011;37795;53.236;5.704;2022-11-20T04:57:38;13.32;;;11.93;;
51718;SDS011;37795;53.236;5.704;2022-11-20T05:00:04;16.30;;;13.47;;
51718;SDS011;37795;53.236;5.704;2022-11-20T05:02:30;14.02;;;12.52;;
51718;SDS011;37795;53.236;5.704;2022-11-20T05:04:56;13.95;;;12.40;;
51718;SDS011;37795;53.236;5.704;2022-11-20T05:07:22;13.77;;;11.87;;
51718;SDS011;37795;53.236;5.704;2022-11-20T05:09:48;13.82;;;12.15;;
51718;SDS011;37795;53.236;5.704;2022-11-20T05:12:14;13.30;;;11.77;;
51718;SDS011;37795;53.236;5.704;2022-11-20T05:14:39;14.95;;;12.95;;
51718;SDS011;37795;53.236;5.704;2022-11-20T05:17:05;13.57;;;12.07;;
51718;SDS011;37795;53.236;5.704;2022-11-20T05:19:31;14.23;;;12.02;;
51718;SDS011;37795;53.236;5.704;2022-11-20T05:21:56;15.57;;;12.37;;
51718;SDS011;37795;53.236;5.704;2022-11-20T05:24:22;13.20;;;11.80;;
51718;SDS011;37795;53.236;5.704;2022-11-20T05:26:48;15.40;;;12.52;;
51718;SDS011;37795;53.236;5.704;2022-11-20T05:29:13;13.95;;;12.23;;
51718;SDS011;37795;53.236;5.704;2022-11-20T05:31:40;13.88;;;12.45;;
51718;SDS011;37795;53.236;5.704;2022-11-20T05:34:06;17.27;;;11.43;;
51718;SDS011;37795;53.236;5.704;2022-11-20T05:36:32;12.48;;;10.18;;
51718;SDS011;37795;53.236;5.704;2022-11-20T05:38:58;13.48;;;11.50;;
51718;SDS011;37795;53.236;5.704;2022-11-20T05:41:23;13.47;;;11.87;;
51718;SDS011;37795;53.236;5.704;2022-11-20T05:43:50;13.98;;;11.43;;
51718;SDS011;37795;53.236;5.704;2022-11-20T05:46:18;15.57;;;12.20;;
51718;SDS011;37795;53.236;5.704;2022-11-20T05:48:45;12.95;;;11.35;;
51718;SDS011;37795;53.236;5.704;2022-11-20T05:51:12;12.25;;;11.00;;
51718;SDS011;37795;53.236;5.704;2022-11-20T05:53:40;14.13;;;11.45;;
51718;SDS011;37795;53.236;5.704;2022-11-20T05:56:07;14.43;;;12.37;;
51718;SDS011;37795;53.236;5.704;2022-11-20T05:58:35;13.18;;;11.38;;
51718;SDS011;37795;53.236;5.704;2022-11-20T06:03:41;14.38;;;11.57;;
51718;SDS011;37795;53.236;5.704;2022-11-20T06:06:11;15.80;;;11.95;;
51718;SDS011;37795;53.236;5.704;2022-11-20T06:08:37;12.70;;;11.15;;
51718;SDS011;37795;53.236;5.704;2022-11-20T06:11:04;14.30;;;11.30;;
51718;SDS011;37795;53.236;5.704;2022-11-20T06:13:31;13.68;;;10.73;;
51718;SDS011;37795;53.236;5.704;2022-11-20T06:15:56;12.48;;;11.07;;
51718;SDS011;37795;53.236;5.704;2022-11-20T06:18:22;11.47;;;10.33;;
51718;SDS011;37795;53.236;5.704;2022-11-20T06:20:48;11.88;;;10.68;;
51718;SDS011;37795;53.236;5.704;2022-11-20T06:23:13;13.85;;;11.80;;
51718;SDS011;37795;53.236;5.704;2022-11-20T06:25:40;12.67;;;11.07;;
51718;SDS011;37795;53.236;5.704;2022-11-20T06:28:07;12.30;;;11.00;;
51718;SDS011;37795;53.236;5.704;2022-11-20T06:30:34;12.95;;;11.57;;
51718;SDS011;37795;53.236;5.704;2022-11-20T06:33:00;13.40;;;10.80;;
51718;SDS011;37795;53.236;5.704;2022-11-20T06:35:26;14.07;;;10.53;;
51718;SDS011;37795;53.236;5.704;2022-11-20T06:37:51;12.80;;;11.43;;
51718;SDS011;37795;53.236;5.704;2022-11-20T06:40:17;11.97;;;10.40;;
51718;SDS011;37795;53.236;5.704;2022-11-20T06:42:43;13.73;;;11.25;;
51718;SDS011;37795;53.236;5.704;2022-11-20T06:45:09;13.52;;;11.82;;
51718;SDS011;37795;53.236;5.704;2022-11-20T06:47:35;14.30;;;10.90;;
51718;SDS011;37795;53.236;5.704;2022-11-20T06:50:00;12.95;;;11.30;;
51718;SDS011;37795;53.236;5.704;2022-11-20T06:59:16;12.55;;;10.48;;
51718;SDS011;37795;53.236;5.704;2022-11-20T07:01:41;15.23;;;12.43;;
51718;SDS011;37795;53.236;5.704;2022-11-20T07:04:07;13.20;;;11.77;;
51718;SDS011;37795;53.236;5.704;2022-11-20T07:06:33;16.07;;;11.47;;
51718;SDS011;37795;53.236;5.704;2022-11-20T07:08:58;13.45;;;11.57;;
51718;SDS011;37795;53.236;5.704;2022-11-20T07:11:24;17.60;;;12.43;;
51718;SDS011;37795;53.236;5.704;2022-11-20T07:13:50;13.20;;;11.80;;
51718;SDS011;37795;53.236;5.704;2022-11-20T07:16:15;13.20;;;11.90;;
51718;SDS011;37795;53.236;5.704;2022-11-20T07:18:41;12.88;;;11.52;;
51718;SDS011;37795;53.236;5.704;2022-11-20T07:21:08;13.60;;;11.93;;
51718;SDS011;37795;53.236;5.704;2022-11-20T07:23:35;16.70;;;12.52;;
51718;SDS011;37795;53.236;5.704;2022-11-20T07:26:08;14.48;;;12.38;;
51718;SDS011;37795;53.236;5.704;2022-11-20T07:28:35;14.45;;;11.60;;
51718;SDS011;37795;53.236;5.704;2022-11-20T07:31:01;16.65;;;13.30;;
51718;SDS011;37795;53.236;5.704;2022-11-20T07:33:27;14.80;;;12.18;;
51718;SDS011;37795;53.236;5.704;2022-11-20T07:35:53;13.50;;;12.10;;
51718;SDS011;37795;53.236;5.704;2022-11-20T07:38:19;13.70;;;11.98;;
51718;SDS011;37795;53.236;5.704;2022-11-20T07:40:44;14.37;;;12.90;;
51718;SDS011;37795;53.236;5.704;2022-11-20T07:43:10;16.80;;;12.82;;
51718;SDS011;37795;53.236;5.704;2022-11-20T07:45:36;15.53;;;13.73;;
51718;SDS011;37795;53.236;5.704;2022-11-20T07:48:02;15.00;;;13.18;;
51718;SDS011;37795;53.236;5.704;2022-11-20T07:50:28;15.77;;;12.83;;
51718;SDS011;37795;53.236;5.704;2022-11-20T07:53:00;15.38;;;13.05;;
51718;SDS011;37795;53.236;5.704;2022-11-20T07:55:29;16.25;;;13.50;;
51718;SDS011;37795;53.236;5.704;2022-11-20T07:57:55;18.97;;;14.47;;
51718;SDS011;37795;53.236;5.704;2022-11-20T08:00:22;15.00;;;13.20;;
51718;SDS011;37795;53.236;5.704;2022-11-20T08:02:48;14.90;;;13.30;;
51718;SDS011;37795;53.236;5.704;2022-11-20T08:05:14;14.70;;;13.07;;
51718;SDS011;37795;53.236;5.704;2022-11-20T08:07:40;19.90;;;14.90;;
51718;SDS011;37795;53.236;5.704;2022-11-20T08:10:08;16.53;;;14.80;;
51718;SDS011;37795;53.236;5.704;2022-11-20T08:12:35;16.33;;;14.50;;
51718;SDS011;37795;53.236;5.704;2022-11-20T08:15:19;16.27;;;14.30;;
51718;SDS011;37795;53.236;5.704;2022-11-20T08:17:45;16.58;;;14.82;;
51718;SDS011;37795;53.236;5.704;2022-11-20T08:20:11;16.67;;;14.30;;
51718;SDS011;37795;53.236;5.704;2022-11-20T08:22:37;18.25;;;14.88;;
51718;SDS011;37795;53.236;5.704;2022-11-20T08:25:02;17.47;;;15.57;;
51718;SDS011;37795;53.236;5.704;2022-11-20T08:27:29;24.50;;;15.87;;
51718;SDS011;37795;53.236;5.704;2022-11-20T08:29:56;19.40;;;14.43;;
51718;SDS011;37795;53.236;5.704;2022-11-20T08:32:22;21.13;;;14.60;;
51718;SDS011;37795;53.236;5.704;2022-11-20T08:34:48;22.13;;;14.82;;
51718;SDS011;37795;53.236;5.704;2022-11-20T08:37:13;15.63;;;13.88;;
51718;SDS011;37795;53.236;5.704;2022-11-20T08:39:39;15.57;;;13.13;;
51718;SDS011;37795;53.236;5.704;2022-11-20T08:42:08;34.25;;;24.10;;
51718;SDS011;37795;53.236;5.704;2022-11-20T08:44:34;42.60;;;37.17;;
51718;SDS011;37795;53.236;5.704;2022-11-20T08:46:59;19.55;;;17.40;;
51718;SDS011;37795;53.236;5.704;2022-11-20T08:49:25;17.77;;;16.03;;
51718;SDS011;37795;53.236;5.704;2022-11-20T08:51:51;18.00;;;16.08;;
51718;SDS011;37795;53.236;5.704;2022-11-20T08:54:18;18.50;;;16.60;;
51718;SDS011;37795;53.236;5.704;2022-11-20T08:56:46;13.38;;;12.07;;
51718;SDS011;37795;53.236;5.704;2022-11-20T08:59:12;14.80;;;12.60;;
51718;SDS011;37795;53.236;5.704;2022-11-20T09:01:38;14.10;;;12.70;;
51718;SDS011;37795;53.236;5.704;2022-11-20T09:04:04;13.52;;;12.13;;
51718;SDS011;37795;53.236;5.704;2022-11-20T09:06:30;14.77;;;12.53;;
51718;SDS011;37795;53.236;5.704;2022-11-20T09:08:55;14.75;;;12.65;;
51718;SDS011;37795;53.236;5.704;2022-11-20T09:11:22;13.27;;;11.97;;
51718;SDS011;37795;53.236;5.704;2022-11-20T09:13:47;12.73;;;11.50;;
51718;SDS011;37795;53.236;5.704;2022-11-20T09:16:13;12.20;;;10.97;;
51718;SDS011;37795;53.236;5.704;2022-11-20T09:18:39;12.65;;;11.35;;
51718;SDS011;37795;53.236;5.704;2022-11-20T09:21:05;12.93;;;11.70;;
51718;SDS011;37795;53.236;5.704;2022-11-20T09:23:36;13.35;;;11.95;;
51718;SDS011;37795;53.236;5.704;2022-11-20T09:26:07;13.95;;;12.20;;
51718;SDS011;37795;53.236;5.704;2022-11-20T09:28:35;11.93;;;10.73;;
51718;SDS011;37795;53.236;5.704;2022-11-20T09:31:04;12.32;;;11.02;;
51718;SDS011;37795;53.236;5.704;2022-11-20T09:33:34;16.27;;;11.57;;
51718;SDS011;37795;53.236;5.704;2022-11-20T09:36:00;12.50;;;11.20;;
51718;SDS011;37795;53.236;5.704;2022-11-20T09:38:26;12.87;;;11.17;;
51718;SDS011;37795;53.236;5.704;2022-11-20T09:41:02;13.02;;;11.65;;
51718;SDS011;37795;53.236;5.704;2022-11-20T09:46:38;15.65;;;13.27;;
51718;SDS011;37795;53.236;5.704;2022-11-20T09:54:49;13.25;;;11.88;;
51718;SDS011;37795;53.236;5.704;2022-11-20T09:57:17;13.02;;;11.63;;
51718;SDS011;37795;53.236;5.704;2022-11-20T09:59:46;13.40;;;11.70;;
51718;SDS011;37795;53.236;5.704;2022-11-20T10:04:52;12.77;;;11.13;;
51718;SDS011;37795;53.236;5.704;2022-11-20T10:10:28;14.65;;;12.23;;
51718;SDS011;37795;53.236;5.704;2022-11-20T10:21:11;16.45;;;11.95;;
51718;SDS011;37795;53.236;5.704;2022-11-20T10:29:34;14.43;;;13.02;;
51718;SDS011;37795;53.236;5.704;2022-11-20T10:32:04;16.35;;;13.07;;
51718;SDS011;37795;53.236;5.704;2022-11-20T10:34:55;13.98;;;12.43;;
51718;SDS011;37795;53.236;5.704;2022-11-20T10:37:26;15.40;;;13.63;;
51718;SDS011;37795;53.236;5.704;2022-11-20T10:39:56;21.27;;;12.98;;
51718;SDS011;37795;53.236;5.704;2022-11-20T10:42:39;13.07;;;11.68;;
51718;SDS011;37795;53.236;5.704;2022-11-20T10:48:49;15.90;;;13.20;;
51718;SDS011;37795;53.236;5.704;2022-11-20T10:59:24;14.13;;;12.52;;
51718;SDS011;37795;53.236;5.704;2022-11-20T11:02:15;14.98;;;12.52;;
51718;SDS011;37795;53.236;5.704;2022-11-20T11:04:51;16.17;;;12.45;;
51718;SDS011;37795;53.236;5.704;2022-11-20T11:07:25;16.38;;;14.02;;
51718;SDS011;37795;53.236;5.704;2022-11-20T11:09:56;13.70;;;12.25;;
51718;SDS011;37795;53.236;5.704;2022-11-20T11:12:22;13.23;;;11.95;;
51718;SDS011;37795;53.236;5.704;2022-11-20T11:14:50;14.68;;;13.02;;
51718;SDS011;37795;53.236;5.704;2022-11-20T11:17:20;14.43;;;12.93;;
51718;SDS011;37795;53.236;5.704;2022-11-20T11:20:00;14.10;;;12.43;;
51718;SDS011;37795;53.236;5.704;2022-11-20T11:22:28;13.43;;;11.52;;
51718;SDS011;37795;53.236;5.704;2022-11-20T11:24:55;14.47;;;12.00;;
51718;SDS011;37795;53.236;5.704;2022-11-20T11:27:21;13.27;;;11.98;;
51718;SDS011;37795;53.236;5.704;2022-11-20T11:29:47;12.40;;;11.10;;
51718;SDS011;37795;53.236;5.704;2022-11-20T11:34:40;10.18;;;9.25;;
51718;SDS011;37795;53.236;5.704;2022-11-20T11:37:28;11.63;;;10.43;;
51718;SDS011;37795;53.236;5.704;2022-11-20T11:39:57;10.30;;;9.05;;
51718;SDS011;37795;53.236;5.704;2022-11-20T11:42:23;11.10;;;10.00;;
51718;SDS011;37795;53.236;5.704;2022-11-20T11:44:49;11.23;;;10.13;;
51718;SDS011;37795;53.236;5.704;2022-11-20T11:47:30;9.38;;;8.38;;
51718;SDS011;37795;53.236;5.704;2022-11-20T11:52:41;10.00;;;9.00;;
51718;SDS011;37795;53.236;5.704;2022-11-20T11:55:26;10.68;;;9.60;;
51718;SDS011;37795;53.236;5.704;2022-11-20T12:01:20;11.48;;;8.65;;
51718;SDS011;37795;53.236;5.704;2022-11-20T12:09:53;10.27;;;8.88;;
51718;SDS011;37795;53.236;5.704;2022-11-20T12:12:27;10.40;;;8.47;;
51718;SDS011;37795;53.236;5.704;2022-11-20T12:15:08;9.55;;;8.63;;
51718;SDS011;37795;53.236;5.704;2022-11-20T12:17:37;8.85;;;7.95;;
51718;SDS011;37795;53.236;5.704;2022-11-20T12:20:05;15.97;;;10.80;;
51718;SDS011;37795;53.236;5.704;2022-11-20T12:22:47;10.02;;;8.40;;
51718;SDS011;37795;53.236;5.704;2022-11-20T12:30:59;15.52;;;10.98;;
51718;SDS011;37795;53.236;5.704;2022-11-20T12:48:18;8.13;;;7.15;;
51718;SDS011;37795;53.236;5.704;2022-11-20T12:56:57;8.27;;;7.22;;
51718;SDS011;37795;53.236;5.704;2022-11-20T13:19:10;9.05;;;8.07;;
51718;SDS011;37795;53.236;5.704;2022-11-20T13:21:39;9.67;;;8.30;;
51718;SDS011;37795;53.236;5.704;2022-11-20T13:26:43;11.80;;;8.93;;
51718;SDS011;37795;53.236;5.704;2022-11-20T13:29:19;9.50;;;8.27;;
51718;SDS011;37795;53.236;5.704;2022-11-20T13:31:48;9.45;;;8.45;;
51718;SDS011;37795;53.236;5.704;2022-11-20T13:34:22;10.25;;;9.15;;
51718;SDS011;37795;53.236;5.704;2022-11-20T13:36:51;9.60;;;8.60;;
51718;SDS011;37795;53.236;5.704;2022-11-20T13:39:25;12.68;;;9.13;;
51718;SDS011;37795;53.236;5.704;2022-11-20T13:42:02;10.77;;;9.68;;
51718;SDS011;37795;53.236;5.704;2022-11-20T13:45:00;10.65;;;9.30;;
51718;SDS011;37795;53.236;5.704;2022-11-20T13:47:28;11.93;;;9.80;;
51718;SDS011;37795;53.236;5.704;2022-11-20T13:49:58;11.13;;;10.13;;
51718;SDS011;37795;53.236;5.704;2022-11-20T13:55:18;9.63;;;8.15;;
51718;SDS011;37795;53.236;5.704;2022-11-20T14:00:50;9.00;;;8.10;;
51718;SDS011;37795;53.236;5.704;2022-11-20T14:03:22;12.05;;;9.80;;
51718;SDS011;37795;53.236;5.704;2022-11-20T14:06:00;11.95;;;9.65;;
51718;SDS011;37795;53.236;5.704;2022-11-20T14:11:15;10.82;;;9.77;;
51718;SDS011;37795;53.236;5.704;2022-11-20T14:16:39;12.27;;;9.38;;
51718;SDS011;37795;53.236;5.704;2022-11-20T14:21:46;12.02;;;9.48;;
51718;SDS011;37795;53.236;5.704;2022-11-20T14:24:13;10.13;;;8.70;;
51718;SDS011;37795;53.236;5.704;2022-11-20T14:26:43;9.27;;;8.30;;
51718;SDS011;37795;53.236;5.704;2022-11-20T14:29:13;11.30;;;9.82;;
51718;SDS011;37795;53.236;5.704;2022-11-20T14:31:41;13.90;;;11.00;;
51718;SDS011;37795;53.236;5.704;2022-11-20T14:34:14;13.13;;;10.88;;
51718;SDS011;37795;53.236;5.704;2022-11-20T14:36:43;12.18;;;10.02;;
51718;SDS011;37795;53.236;5.704;2022-11-20T14:39:30;10.47;;;9.23;;
51718;SDS011;37795;53.236;5.704;2022-11-20T14:41:58;11.13;;;9.88;;
51718;SDS011;37795;53.236;5.704;2022-11-20T14:44:26;11.38;;;10.13;;
51718;SDS011;37795;53.236;5.704;2022-11-20T14:46:55;12.07;;;9.90;;
51718;SDS011;37795;53.236;5.704;2022-11-20T14:49:23;11.38;;;9.45;;
51718;SDS011;37795;53.236;5.704;2022-11-20T14:52:00;10.75;;;9.68;;
51718;SDS011;37795;53.236;5.704;2022-11-20T14:54:27;11.32;;;9.35;;
51718;SDS011;37795;53.236;5.704;2022-11-20T14:56:58;12.50;;;9.88;;
51718;SDS011;37795;53.236;5.704;2022-11-20T14:59:29;11.85;;;10.63;;
51718;SDS011;37795;53.236;5.704;2022-11-20T15:01:57;11.60;;;10.30;;
51718;SDS011;37795;53.236;5.704;2022-11-20T15:04:25;12.80;;;11.30;;
51718;SDS011;37795;53.236;5.704;2022-11-20T15:06:52;12.80;;;11.50;;
51718;SDS011;37795;53.236;5.704;2022-11-20T15:09:22;13.48;;;11.30;;
51718;SDS011;37795;53.236;5.704;2022-11-20T15:11:53;11.30;;;10.10;;
51718;SDS011;37795;53.236;5.704;2022-11-20T15:14:24;12.20;;;10.50;;
51718;SDS011;37795;53.236;5.704;2022-11-20T15:16:51;15.82;;;11.25;;
51718;SDS011;37795;53.236;5.704;2022-11-20T15:19:22;16.75;;;13.45;;
51718;SDS011;37795;53.236;5.704;2022-11-20T15:21:49;13.30;;;10.90;;
51718;SDS011;37795;53.236;5.704;2022-11-20T15:24:15;11.93;;;10.60;;
51718;SDS011;37795;53.236;5.704;2022-11-20T15:26:41;11.27;;;10.07;;
51718;SDS011;37795;53.236;5.704;2022-11-20T15:29:08;10.80;;;9.70;;
51718;SDS011;37795;53.236;5.704;2022-11-20T15:31:36;14.45;;;10.45;;
51718;SDS011;37795;53.236;5.704;2022-11-20T15:34:02;12.55;;;10.25;;
51718;SDS011;37795;53.236;5.704;2022-11-20T15:36:31;18.60;;;14.18;;
51718;SDS011;37795;53.236;5.704;2022-11-20T15:38:56;16.67;;;12.82;;
51718;SDS011;37795;53.236;5.704;2022-11-20T15:41:22;16.05;;;13.25;;
51718;SDS011;37795;53.236;5.704;2022-11-20T15:43:48;12.20;;;9.70;;
51718;SDS011;37795;53.236;5.704;2022-11-20T15:46:15;12.13;;;10.82;;
51718;SDS011;37795;53.236;5.704;2022-11-20T15:48:49;11.15;;;9.95;;
51718;SDS011;37795;53.236;5.704;2022-11-20T15:53:51;10.77;;;8.60;;
51718;SDS011;37795;53.236;5.704;2022-11-20T15:56:16;12.70;;;9.35;;
51718;SDS011;37795;53.236;5.704;2022-11-20T15:58:42;11.67;;;9.77;;
51718;SDS011;37795;53.236;5.704;2022-11-20T16:01:12;12.60;;;11.07;;
51718;SDS011;37795;53.236;5.704;2022-11-20T16:03:39;15.98;;;12.38;;
51718;SDS011;37795;53.236;5.704;2022-11-20T16:06:05;10.23;;;9.30;;
51718;SDS011;37795;53.236;5.704;2022-11-20T16:08:30;11.55;;;10.35;;
51718;SDS011;37795;53.236;5.704;2022-11-20T16:10:56;12.87;;;10.00;;
51718;SDS011;37795;53.236;5.704;2022-11-20T16:13:22;13.27;;;10.38;;
51718;SDS011;37795;53.236;5.704;2022-11-20T16:19:04;9.98;;;8.98;;
51718;SDS011;37795;53.236;5.704;2022-11-20T16:21:30;10.25;;;8.82;;
51718;SDS011;37795;53.236;5.704;2022-11-20T16:24:00;9.95;;;8.95;;
51718;SDS011;37795;53.236;5.704;2022-11-20T16:26:27;9.23;;;8.32;;
51718;SDS011;37795;53.236;5.704;2022-11-20T16:28:53;9.43;;;8.38;;
51718;SDS011;37795;53.236;5.704;2022-11-20T16:31:19;12.27;;;9.25;;
51718;SDS011;37795;53.236;5.704;2022-11-20T16:33:49;10.90;;;9.70;;
51718;SDS011;37795;53.236;5.704;2022-11-20T16:36:16;16.80;;;13.40;;
51718;SDS011;37795;53.236;5.704;2022-11-20T16:38:43;16.38;;;14.43;;
51718;SDS011;37795;53.236;5.704;2022-11-20T16:41:08;11.10;;;10.00;;
51718;SDS011;37795;53.236;5.704;2022-11-20T16:43:45;11.48;;;9.80;;
51718;SDS011;37795;53.236;5.704;2022-11-20T16:46:19;10.10;;;9.10;;
51718;SDS011;37795;53.236;5.704;2022-11-20T16:49:10;10.17;;;8.93;;
51718;SDS011;37795;53.236;5.704;2022-11-20T16:51:36;10.00;;;9.00;;
51718;SDS011;37795;53.236;5.704;2022-11-20T16:54:03;10.15;;;9.07;;
51718;SDS011;37795;53.236;5.704;2022-11-20T16:56:30;11.55;;;10.25;;
51718;SDS011;37795;53.236;5.704;2022-11-20T16:58:56;11.30;;;10.15;;
51718;SDS011;37795;53.236;5.704;2022-11-20T17:01:24;10.77;;;9.63;;